createdAt,value
2022-11-19T00:01:39.482Z,21
2022-11-19T00:03:47.526Z,17.5
2022-11-19T00:05:45.505Z,16.9
2022-11-19T00:07:47.230Z,20.3
2022-11-19T00:16:46.661Z,20.3
2022-11-19T00:18:48.334Z,19.6
2022-11-19T00:20:50.032Z,17.1
2022-11-19T00:22:54.400Z,21.2
2022-11-19T00:26:57.783Z,20.2
2022-11-19T00:32:01.920Z,23.2
2022-11-19T00:36:05.289Z,19.5
2022-11-19T00:38:09.688Z,25.7
2022-11-19T00:40:11.370Z,25.1
2022-11-19T00:42:13.103Z,25.1
2022-11-19T00:48:20.841Z,27.1
2022-11-19T00:50:25.196Z,25.4
2022-11-19T00:52:26.904Z,26.8
2022-11-19T00:57:44.134Z,31.3
2022-11-19T01:00:36.359Z,22.7
2022-11-19T01:09:35.758Z,22.7
2022-11-19T01:11:37.420Z,35.2
2022-11-19T01:13:39.112Z,27.7
2022-11-19T01:17:45.182Z,28.9
2022-11-19T01:19:46.852Z,28
2022-11-19T01:24:54.064Z,26
2022-11-19T01:26:55.756Z,41.4
2022-11-19T01:28:57.421Z,31.2
2022-11-19T01:31:01.793Z,30.3
2022-11-19T01:33:03.471Z,29.4
2022-11-19T01:35:05.174Z,34.6
2022-11-19T01:37:09.518Z,34.9
2022-11-19T01:39:11.204Z,35.4
2022-11-19T01:41:12.886Z,32.5
2022-11-19T01:49:24.950Z,31.1
2022-11-19T01:53:28.309Z,40.7
2022-11-19T01:57:34.350Z,30
2022-11-19T02:27:35.498Z,27.4
2022-11-19T02:33:43.182Z,25.7
2022-11-19T02:35:44.979Z,30.6
2022-11-19T02:37:46.466Z,26.9
2022-11-19T02:41:52.489Z,29.7
2022-11-19T02:48:00.273Z,25.2
2022-11-19T02:50:01.834Z,34.7
2022-11-19T02:57:12.299Z,26.7
2022-11-19T02:59:13.959Z,21.2
2022-11-19T03:03:20.001Z,23.1
2022-11-19T03:10:28.003Z,31.1
2022-11-19T03:14:31.314Z,31.1
2022-11-19T03:16:35.633Z,24
2022-11-19T03:20:38.950Z,23.7
2022-11-19T03:35:14.801Z,24.1
2022-11-19T03:37:16.463Z,33.2
2022-11-19T03:39:18.472Z,24.1
2022-11-19T03:41:22.421Z,23.2
2022-11-19T03:45:25.716Z,26.3
2022-11-19T03:47:30.063Z,18
2022-11-19T03:51:33.372Z,27
2022-11-19T03:53:37.693Z,27.2
2022-11-19T03:55:39.330Z,23
2022-11-19T03:57:40.973Z,22.4
2022-11-19T03:59:45.302Z,26.5
2022-11-19T04:03:48.959Z,22.6
2022-11-19T04:19:32.776Z,32.2
2022-11-19T04:23:36.048Z,26
2022-11-19T04:25:40.395Z,23.7
2022-11-19T04:29:43.633Z,23.9
2022-11-19T04:31:47.939Z,26
2022-11-19T04:33:49.579Z,25.1
2022-11-19T04:35:51.193Z,43.1
2022-11-19T04:37:55.536Z,23.9
2022-11-19T04:41:58.800Z,36.7
2022-11-19T04:46:04.790Z,17.6
2022-11-19T04:48:06.423Z,25
2022-11-19T04:56:18.341Z,28.7
2022-11-19T05:00:21.670Z,23.9
2022-11-19T05:02:25.928Z,23.5
2022-11-19T05:04:27.566Z,23.3
2022-11-19T05:06:29.226Z,24.2
2022-11-19T05:08:33.552Z,25.9
2022-11-19T05:10:35.159Z,25.3
2022-11-19T05:34:35.415Z,29.2
2022-11-19T05:57:03.596Z,30.2
2022-11-19T06:01:06.769Z,35.3
2022-11-19T06:03:11.170Z,32.2
2022-11-19T06:05:12.672Z,26.4
2022-11-19T06:09:18.945Z,22.8
2022-11-19T06:11:20.188Z,26.1
2022-11-19T06:13:21.801Z,28.1
2022-11-19T06:15:26.105Z,22.8
2022-11-19T06:19:29.288Z,20.1
2022-11-19T06:21:33.588Z,33.3
2022-11-19T06:25:36.856Z,15
2022-11-19T06:37:26.132Z,25.6
2022-11-19T06:39:27.729Z,24.5
2022-11-19T06:41:29.353Z,28.2
2022-11-19T06:43:33.645Z,28.1
2022-11-19T06:45:35.216Z,33.2
2022-11-19T06:47:36.781Z,27.2
2022-11-19T06:49:41.090Z,33.7
2022-11-19T06:51:42.690Z,30.8
2022-11-19T06:53:44.280Z,26.5
2022-11-19T06:55:48.565Z,24.7
2022-11-19T06:57:50.144Z,24.1
2022-11-19T06:59:51.744Z,28
2022-11-19T07:01:56.210Z,20.9
2022-11-19T07:03:57.607Z,23
2022-11-19T07:05:59.187Z,25.7
2022-11-19T07:08:03.638Z,26.1
2022-11-19T07:10:05.017Z,25.6
2022-11-19T07:12:06.578Z,23.2
2022-11-19T07:14:10.841Z,21.8
2022-11-19T07:16:12.411Z,23.7
2022-11-19T07:20:18.195Z,29.4
2022-11-19T07:24:21.336Z,31
2022-11-19T07:26:25.523Z,20.9
2022-11-19T07:28:27.087Z,26
2022-11-19T07:30:28.714Z,23.7
2022-11-19T07:36:35.962Z,33.1
2022-11-19T07:38:40.172Z,26.7
2022-11-19T07:48:50.510Z,24.3
2022-11-19T07:50:56.623Z,26.7
2022-11-19T07:54:57.790Z,24.6
2022-11-19T07:59:03.527Z,25.9
2022-11-19T08:01:05.047Z,29.8
2022-11-19T08:03:09.246Z,26.3
2022-11-19T08:05:10.776Z,27.2
2022-11-19T08:09:16.732Z,24.1
2022-11-19T08:11:18.015Z,27
2022-11-19T08:13:19.515Z,24.4
2022-11-19T08:15:23.712Z,25.1
2022-11-19T08:19:26.762Z,26.7
2022-11-19T08:21:30.967Z,20.9
2022-11-19T08:25:33.960Z,24
2022-11-19T08:27:38.166Z,21
2022-11-19T08:29:39.699Z,28.9
2022-11-19T08:31:41.180Z,24.9
2022-11-19T08:41:54.120Z,24.8
2022-11-19T08:43:55.641Z,20.1
2022-11-19T08:45:59.858Z,24.4
2022-11-19T08:48:01.364Z,18.5
2022-11-19T08:50:02.891Z,23.7
2022-11-19T08:55:11.175Z,19.5
2022-11-19T08:59:14.206Z,18.5
2022-11-19T09:10:53.397Z,19.5
2022-11-19T09:12:56.783Z,23.3
2022-11-19T09:14:56.510Z,19.7
2022-11-19T09:20:09.360Z,19.2
2022-11-19T09:22:10.900Z,18.8
2022-11-19T09:24:12.454Z,26.2
2022-11-19T09:26:16.839Z,15.5
2022-11-19T09:28:18.194Z,19.6
2022-11-19T09:30:19.754Z,14.6
2022-11-19T09:35:32.973Z,18
2022-11-19T09:39:36.229Z,16.6
2022-11-19T09:43:42.006Z,12.2
2022-11-19T09:47:47.841Z,16.7
2022-11-19T09:51:50.960Z,11.8
2022-11-19T10:03:41.157Z,14.8
2022-11-19T10:05:42.748Z,15.8
2022-11-19T10:07:44.331Z,12.3
2022-11-19T10:14:55.525Z,11.4
2022-11-19T10:16:57.146Z,12.4
2022-11-19T10:19:01.515Z,11.1
2022-11-19T10:21:03.072Z,13.9
2022-11-19T10:23:04.716Z,14.1
2022-11-19T10:28:14.608Z,9.2
2022-11-19T10:30:22.892Z,10.8
2022-11-19T10:32:14.064Z,9.3
2022-11-19T10:34:18.366Z,11.9
2022-11-19T10:36:20.024Z,8.2
2022-11-19T10:38:21.651Z,9.4
2022-11-19T10:40:25.994Z,8.3
2022-11-19T10:44:29.295Z,9.2
2022-11-19T10:46:33.630Z,9.1
2022-11-19T10:50:36.941Z,8
2022-11-19T10:52:41.297Z,11.3
2022-11-19T10:54:42.984Z,7.9
2022-11-19T10:58:49.024Z,7.1
2022-11-19T11:00:50.763Z,7.5
2022-11-19T11:02:52.381Z,7.5
2022-11-19T11:04:56.774Z,8.5
2022-11-19T11:09:00.179Z,6.8
2022-11-19T11:14:07.393Z,7.1
2022-11-19T11:16:09.107Z,6.1
2022-11-19T11:18:10.827Z,6.2
2022-11-19T11:20:15.419Z,7.6
2022-11-19T11:22:16.992Z,5.7
2022-11-19T11:24:18.692Z,5.8
2022-11-19T11:26:23.165Z,5.8
2022-11-19T11:28:24.884Z,5
2022-11-19T11:30:26.616Z,6.5
2022-11-19T11:32:31.292Z,5.7
2022-11-19T11:34:44.000Z,5.6
2022-11-19T11:36:34.553Z,5.8
2022-11-19T11:38:38.976Z,5.1
2022-11-19T11:40:40.739Z,6.1
2022-11-19T11:42:42.509Z,5.6
2022-11-19T11:44:46.972Z,4
2022-11-19T11:46:48.704Z,5.4
2022-11-19T11:48:50.452Z,5
2022-11-19T11:50:54.892Z,6
2022-11-19T11:52:56.681Z,5.1
2022-11-19T11:54:58.464Z,4.4
2022-11-19T12:00:05.119Z,3.9
2022-11-19T12:02:06.879Z,3.5
2022-11-19T12:04:08.608Z,4.1
2022-11-19T12:06:13.070Z,4
2022-11-19T12:08:14.827Z,3.7
2022-11-19T12:10:16.567Z,4.1
2022-11-19T12:22:06.294Z,5.3
2022-11-19T12:24:08.035Z,4
2022-11-19T12:26:09.792Z,3.7
2022-11-19T12:28:14.185Z,3.7
2022-11-19T12:32:17.772Z,4.2
2022-11-19T12:34:22.134Z,3.1
2022-11-19T12:36:23.885Z,3.3
2022-11-19T12:38:25.653Z,3.7
2022-11-19T12:40:36.544Z,3.5
2022-11-19T12:42:31.848Z,7.7
2022-11-19T12:44:33.603Z,3.7
2022-11-19T12:46:38.042Z,3.7
2022-11-19T12:48:39.764Z,4.5
2022-11-19T12:50:41.516Z,4.2
2022-11-19T12:52:45.921Z,4.2
2022-11-19T12:54:47.675Z,4.3
2022-11-19T12:58:53.861Z,3.7
2022-11-19T13:00:55.684Z,4.5
2022-11-19T13:02:57.352Z,5.3
2022-11-19T13:11:09.697Z,3.6
2022-11-19T13:13:11.445Z,3.6
2022-11-19T13:17:17.600Z,4.2
2022-11-19T13:19:19.738Z,4.8
2022-11-19T13:21:21.098Z,4.3
2022-11-19T13:23:25.526Z,4.1
2022-11-19T13:27:28.978Z,3.6
2022-11-19T13:29:33.424Z,4.5
2022-11-19T13:31:35.157Z,4
2022-11-19T13:33:36.905Z,4.4
2022-11-19T13:35:41.337Z,4.2
2022-11-19T13:37:43.083Z,4.8
2022-11-19T13:41:49.269Z,4.2
2022-11-19T13:45:52.744Z,4.9
2022-11-19T13:47:58.360Z,4.4
2022-11-19T13:49:58.967Z,4.4
2022-11-19T13:52:00.696Z,4.6
2022-11-19T13:58:08.639Z,4.2
2022-11-19T14:04:16.596Z,4.4
2022-11-19T14:06:36.203Z,4
2022-11-19T14:10:24.489Z,3.9
2022-11-19T14:12:28.925Z,5.5
2022-11-19T14:14:30.682Z,4.6
2022-11-19T14:16:33.839Z,5
2022-11-19T14:18:36.850Z,3.8
2022-11-19T14:20:38.579Z,4.3
2022-11-19T14:22:40.325Z,8.4
2022-11-19T14:27:52.481Z,1.5
2022-11-19T14:29:54.222Z,3.8
2022-11-19T14:31:55.944Z,5
2022-11-19T14:34:00.350Z,4.1
2022-11-19T14:36:02.098Z,3.9
2022-11-19T14:38:03.835Z,4.9
2022-11-19T14:40:08.268Z,4.1
2022-11-19T14:42:10.001Z,4.5
2022-11-19T14:44:11.773Z,4.4
2022-11-19T14:46:16.154Z,4.5
2022-11-19T14:50:19.591Z,4
2022-11-19T14:59:38.029Z,4.2
2022-11-19T15:01:42.456Z,3.9
2022-11-19T15:03:44.182Z,3.6
2022-11-19T15:05:45.878Z,3.6
2022-11-19T15:21:11.970Z,3.9
2022-11-19T15:23:16.309Z,4.9
2022-11-19T15:32:34.801Z,4.7
2022-11-19T15:34:49.553Z,4.9
2022-11-19T15:36:39.785Z,6.6
2022-11-19T15:39:14.616Z,4.5
2022-11-19T15:40:45.728Z,6.8
2022-11-19T15:42:47.368Z,8.3
2022-11-19T16:14:42.053Z,5.1
2022-11-19T16:16:43.468Z,5.7
2022-11-19T16:18:45.054Z,8.9
2022-11-19T16:20:49.348Z,9.4
2022-11-19T16:22:51.032Z,9.8
2022-11-19T16:24:52.543Z,8.7
2022-11-19T16:29:24.515Z,7.1
2022-11-19T16:31:00.110Z,6.2
2022-11-19T16:33:04.207Z,7.8
2022-11-19T16:35:05.865Z,6.6
2022-11-19T16:37:07.393Z,6.2
2022-11-19T16:39:11.621Z,5.1
2022-11-19T16:41:13.209Z,5.4
2022-11-19T16:43:14.777Z,6
2022-11-19T16:45:19.094Z,7
2022-11-19T16:49:22.207Z,5.2
2022-11-19T16:51:26.454Z,5.6
2022-11-19T16:53:28.044Z,5.7
2022-11-19T16:55:29.606Z,8.9
2022-11-19T16:57:33.870Z,7.2
2022-11-19T16:59:35.453Z,6.2
2022-11-19T17:01:37.124Z,8.5
2022-11-19T17:03:41.298Z,6.7
2022-11-19T17:05:42.829Z,5.6
2022-11-19T17:07:44.458Z,5.1
2022-11-19T17:09:48.646Z,11.6
2022-11-19T17:11:50.219Z,7.4
2022-11-19T17:13:51.778Z,5.7
2022-11-19T17:15:56.037Z,5.2
2022-11-19T17:17:57.593Z,5.6
2022-11-19T17:22:03.386Z,6.5
2022-11-19T17:24:04.935Z,6.2
2022-11-19T17:38:21.059Z,5.7
2022-11-19T17:40:25.275Z,7.6
2022-11-19T17:42:26.787Z,5.9
2022-11-19T17:44:28.302Z,7.3
2022-11-19T17:46:32.506Z,7
2022-11-19T17:48:34.038Z,7.4
2022-11-19T17:50:35.535Z,19.7
2022-11-19T17:52:39.729Z,6.7
2022-11-19T17:54:41.254Z,13.6
2022-11-19T17:56:43.522Z,10.5
2022-11-19T17:58:50.519Z,7.6
2022-11-19T18:02:49.956Z,6.8
2022-11-19T18:04:54.194Z,9.2
2022-11-19T18:06:55.698Z,7.9
2022-11-19T18:08:57.093Z,23
2022-11-19T18:11:01.247Z,16.3
2022-11-19T18:13:02.748Z,10.3
2022-11-19T18:15:04.382Z,13.1
2022-11-19T18:17:08.387Z,17.7
2022-11-19T18:19:09.866Z,11.2
2022-11-19T18:21:11.322Z,14.1
2022-11-19T18:23:15.637Z,13
2022-11-19T18:25:16.972Z,23.8
2022-11-19T18:29:22.983Z,13.4
2022-11-19T18:31:24.045Z,13.4
2022-11-19T18:33:25.538Z,11.5
2022-11-19T18:35:29.708Z,13.3
2022-11-19T18:39:32.532Z,15.5
2022-11-19T18:49:28.122Z,16.1
2022-11-19T18:58:39.393Z,30.9
2022-11-19T19:00:40.809Z,14.5
2022-11-19T19:06:47.815Z,27
2022-11-19T19:08:51.932Z,21.7
2022-11-19T19:10:53.361Z,16.3
2022-11-19T19:12:54.775Z,20.5
2022-11-19T19:14:58.906Z,19.1
2022-11-19T19:17:00.323Z,21.4
2022-11-19T19:19:01.781Z,20.8
2022-11-19T19:21:05.898Z,22.6
2022-11-19T19:23:07.346Z,22.7
2022-11-19T19:25:08.739Z,25.6
2022-11-19T19:27:12.855Z,29.3
2022-11-19T19:29:14.265Z,23.8
2022-11-19T19:31:17.959Z,30.4
2022-11-19T19:35:21.248Z,16.3
2022-11-19T19:37:22.648Z,18
2022-11-19T19:43:29.617Z,19.3
2022-11-19T19:45:33.731Z,27.2
2022-11-19T19:51:40.670Z,18.3
2022-11-19T19:55:43.482Z,29.8
2022-11-19T19:57:47.595Z,25.9
2022-11-19T19:59:48.999Z,32.6
2022-11-19T20:01:50.396Z,42.8
2022-11-19T20:03:55.031Z,47
2022-11-19T20:07:57.649Z,40.1
2022-11-19T20:20:11.443Z,191.9
2022-11-19T20:25:21.049Z,80.6
2022-11-19T20:27:22.458Z,100.6
2022-11-19T20:29:24.051Z,130.8
2022-11-19T20:31:27.909Z,66.9
2022-11-19T20:33:29.442Z,78.3
2022-11-19T20:35:30.730Z,67.7
2022-11-19T20:41:37.605Z,46.9
2022-11-19T20:43:45.904Z,41.5
2022-11-19T20:49:48.586Z,39.7
2022-11-19T20:51:49.999Z,42.9
2022-11-19T20:53:51.383Z,29.6
2022-11-19T20:56:05.152Z,24.9
2022-11-19T20:57:56.882Z,25
2022-11-19T20:59:58.312Z,27.9
2022-11-19T21:02:02.475Z,28.7
2022-11-19T21:06:05.122Z,35.3
2022-11-19T21:08:09.178Z,22.3
2022-11-19T21:12:11.976Z,32.7
2022-11-19T21:14:16.067Z,36.9
2022-11-19T21:16:17.457Z,26.9
2022-11-19T21:18:22.164Z,27.6
2022-11-19T21:20:22.917Z,24.7
2022-11-19T21:24:25.703Z,24.6
2022-11-19T21:28:31.196Z,27.2
2022-11-19T21:30:32.591Z,40.5
2022-11-19T21:32:36.654Z,34.4
2022-11-19T21:34:38.043Z,33.7
2022-11-19T21:36:39.443Z,37.3
2022-11-19T21:54:22.368Z,31.6
2022-11-19T21:56:23.736Z,31.7
2022-11-19T21:58:27.766Z,35.4
2022-11-19T22:00:29.166Z,29.5
2022-11-19T22:02:30.487Z,39.3
2022-11-19T22:21:05.441Z,37.2
2022-11-19T22:25:08.190Z,39.1
2022-11-19T22:34:05.925Z,32
2022-11-19T22:36:10.028Z,31.8
2022-11-19T22:38:08.616Z,30
2022-11-19T22:47:06.358Z,44.9
2022-11-19T22:49:07.701Z,40.9
2022-11-19T22:51:09.044Z,34.2
2022-11-19T22:53:13.105Z,45.5
2022-11-19T22:55:16.925Z,52.4
2022-11-19T22:57:15.804Z,54.1
2022-11-19T23:11:07.903Z,58.8
2022-11-19T23:13:09.239Z,59.7
2022-11-19T23:20:15.623Z,41.6
2022-11-19T23:22:16.944Z,51.3
2022-11-19T23:24:20.975Z,46.4
2022-11-19T23:28:23.709Z,46.4
2022-11-19T23:33:36.128Z,47.3
2022-11-19T23:35:37.474Z,51.5
2022-11-19T23:41:44.223Z,64.9
2022-11-19T23:43:45.539Z,75.4
2022-11-19T23:45:49.557Z,62.1
2022-11-19T23:47:50.944Z,52.3
2022-11-19T23:49:52.199Z,49.2
2022-11-19T23:51:56.234Z,49.8
2022-11-19T23:53:57.601Z,51
2022-11-19T23:55:58.934Z,73.5
